Time;durP1;ratioP1;P1;durP2;ratioP2;P2;SDS_P1;SDS_P2;PMS_P1;PMS_P2;Temp;Humidity;BMP_temperature;BMP_pressure;BME280_temperature;BME280_humidity;BME280_pressure;Samples;Min_cycle;Max_cycle;Signal;HPM_P1;HPM_P2
2021/04/07 00:02:11;;;;;;;17.05;5.75;;;21.70;66.90;;;;;;5022411;28;20072;-65
2021/04/07 00:04:38;;;;;;;24.88;13.65;;;21.70;66.90;;;;;;5018791;28;20025;-67
2021/04/07 00:07:04;;;;;;;20.63;9.82;;;21.70;66.90;;;;;;5018808;28;20397;-68
2021/04/07 00:09:31;;;;;;;18.40;7.65;;;21.70;67.00;;;;;;5023289;28;20088;-65
2021/04/07 00:11:58;;;;;;;13.55;4.90;;;21.70;67.10;;;;;;5026184;28;20513;-66
2021/04/07 00:14:24;;;;;;;14.75;4.03;;;21.70;67.10;;;;;;5022306;28;20018;-65
2021/04/07 00:16:51;;;;;;;10.23;4.45;;;21.70;67.10;;;;;;5024017;28;20040;-67
2021/04/07 00:19:18;;;;;;;15.90;5.07;;;21.60;67.10;;;;;;5024782;28;20036;-68
2021/04/07 00:21:44;;;;;;;16.10;5.03;;;21.60;67.10;;;;;;5027106;28;20373;-65
2021/04/07 00:24:11;;;;;;;18.83;5.22;;;21.60;67.10;;;;;;5029687;28;20018;-71
2021/04/07 00:26:38;;;;;;;11.20;5.18;;;21.60;67.20;;;;;;5024232;28;20064;-65
2021/04/07 00:29:04;;;;;;;17.98;4.38;;;21.60;67.30;;;;;;5024696;28;20033;-68
2021/04/07 00:31:31;;;;;;;18.63;4.47;;;21.60;67.30;;;;;;5024180;28;20022;-65
2021/04/07 00:33:57;;;;;;;16.05;4.10;;;21.60;67.30;;;;;;5026821;28;20045;-67
2021/04/07 00:36:24;;;;;;;16.63;4.03;;;21.50;67.30;;;;;;5026899;28;20061;-68
2021/04/07 00:38:50;;;;;;;15.57;3.78;;;21.60;67.40;;;;;;5026173;28;20022;-73
2021/04/07 00:41:17;;;;;;;10.65;2.97;;;21.60;67.40;;;;;;5027086;28;20504;-66
2021/04/07 00:43:44;;;;;;;9.88;3.53;;;21.50;67.50;;;;;;5030215;28;20021;-65
2021/04/07 00:46:10;;;;;;;11.57;3.63;;;21.50;67.50;;;;;;5025615;28;20473;-68
2021/04/07 00:48:38;;;;;;;19.73;7.82;;;21.50;67.50;;;;;;5025200;28;20064;-72
2021/04/07 00:51:04;;;;;;;27.52;15.20;;;21.50;67.70;;;;;;5022750;28;20033;-76
2021/04/07 00:53:31;;;;;;;19.67;11.25;;;21.50;67.70;;;;;;5023539;28;20044;-74
2021/04/07 00:55:57;;;;;;;13.45;6.80;;;21.40;67.70;;;;;;5026548;28;20092;-70
2021/04/07 00:58:24;;;;;;;15.27;5.05;;;21.40;68.40;;;;;;5027147;28;20025;-67
2021/04/07 01:00:51;;;;;;;12.20;5.57;;;21.40;67.80;;;;;;5028025;28;20037;-67
2021/04/07 01:03:17;;;;;;;7.47;3.33;;;21.40;67.80;;;;;;5027670;28;20028;-66
2021/04/07 01:05:44;;;;;;;11.07;4.03;;;21.40;67.90;;;;;;5024451;28;20105;-69
2021/04/07 01:08:10;;;;;;;16.17;3.90;;;21.40;67.80;;;;;;5025423;28;20037;-71
2021/04/07 01:10:37;;;;;;;8.68;3.13;;;21.40;67.80;;;;;;5028461;28;20087;-69
2021/04/07 01:13:04;;;;;;;13.38;3.38;;;21.40;67.80;;;;;;5028352;28;20075;-68
2021/04/07 01:15:31;;;;;;;8.70;3.13;;;21.40;67.90;;;;;;5028117;28;20056;-71
2021/04/07 01:17:58;;;;;;;11.85;3.42;;;21.40;67.90;;;;;;5026013;28;20043;-65
2021/04/07 01:20:25;;;;;;;10.57;3.30;;;21.40;67.90;;;;;;5024810;28;20380;-70
2021/04/07 01:23:00;;;;;;;8.60;2.72;;;21.40;67.90;;;;;;5025091;28;20018;-68
2021/04/07 01:25:27;;;;;;;13.57;3.38;;;21.30;67.90;;;;;;5028161;28;20633;-65
2021/04/07 01:27:54;;;;;;;14.65;3.58;;;21.40;68.00;;;;;;5027365;28;20104;-73
2021/04/07 01:30:21;;;;;;;7.82;2.65;;;21.30;68.00;;;;;;5025864;28;20028;-69
2021/04/07 01:32:48;;;;;;;15.82;3.13;;;21.30;68.00;;;;;;5027778;28;20083;-65
2021/04/07 01:35:16;;;;;;;11.18;3.33;;;21.30;67.90;;;;;;5027606;28;20021;-73
2021/04/07 01:37:43;;;;;;;10.60;2.55;;;21.30;67.90;;;;;;5027475;28;20084;-67
2021/04/07 01:40:15;;;;;;;12.25;3.72;;;21.30;68.50;;;;;;5024817;28;20432;-65
2021/04/07 01:42:47;;;;;;;8.73;2.83;;;21.30;68.10;;;;;;5027169;28;20029;-68
2021/04/07 01:45:14;;;;;;;13.48;3.38;;;21.20;68.10;;;;;;5024871;28;20445;-65
2021/04/07 01:47:42;;;;;;;10.90;4.30;;;21.20;68.20;;;;;;5023646;28;20071;-68
2021/04/07 01:50:09;;;;;;;8.88;2.75;;;21.20;68.10;;;;;;5027663;28;20029;-72
2021/04/07 01:52:36;;;;;;;10.93;2.88;;;21.20;68.10;;;;;;5020650;28;20029;-65
2021/04/07 01:55:03;;;;;;;10.32;2.75;;;21.20;68.10;;;;;;5025390;28;20108;-65
2021/04/07 01:57:29;;;;;;;7.47;2.38;;;21.20;68.10;;;;;;5018664;28;20025;-65
2021/04/07 01:59:56;;;;;;;7.80;3.35;;;21.20;68.20;;;;;;5030388;28;20021;-65
2021/04/07 02:02:22;;;;;;;8.18;3.10;;;21.20;68.20;;;;;;5024384;28;20033;-72
2021/04/07 02:04:49;;;;;;;14.52;8.50;;;21.20;68.20;;;;;;5020834;28;20513;-65
2021/04/07 02:07:17;;;;;;;36.67;24.52;;;21.20;68.20;;;;;;5026167;28;20029;-66
2021/04/07 02:09:44;;;;;;;22.20;16.13;;;21.20;68.30;;;;;;5027411;28;20049;-67
2021/04/07 02:12:11;;;;;;;23.60;10.52;;;21.20;68.30;;;;;;5025703;28;20025;-65
2021/04/07 02:14:38;;;;;;;11.68;6.65;;;21.20;68.40;;;;;;5022121;28;20528;-68
2021/04/07 02:17:05;;;;;;;14.30;5.65;;;21.20;68.40;;;;;;5029221;28;20392;-69
2021/04/07 02:19:34;;;;;;;11.48;3.55;;;21.10;68.40;;;;;;5020778;28;20060;-67
2021/04/07 02:22:12;;;;;;;14.82;3.80;;;21.10;68.40;;;;;;5027261;28;20022;-64
2021/04/07 02:24:42;;;;;;;14.45;3.30;;;21.10;68.40;;;;;;5023775;28;20072;-65
2021/04/07 02:27:19;;;;;;;10.23;2.88;;;21.10;68.50;;;;;;5020433;28;20026;-65
2021/04/07 02:29:50;;;;;;;9.82;3.05;;;21.10;68.50;;;;;;5021927;28;20029;-66
2021/04/07 02:32:18;;;;;;;14.55;3.55;;;21.10;68.50;;;;;;5023273;28;20042;-70
2021/04/07 02:34:44;;;;;;;7.32;2.35;;;21.10;68.60;;;;;;5019715;28;20372;-68
2021/04/07 02:37:12;;;;;;;9.23;2.42;;;21.10;68.70;;;;;;5021845;28;20092;-65
2021/04/07 02:39:40;;;;;;;14.15;3.58;;;21.10;68.70;;;;;;5023877;28;20496;-70
2021/04/07 02:42:07;;;;;;;8.98;3.13;;;21.00;68.70;;;;;;5022085;28;20105;-65
2021/04/07 02:44:34;;;;;;;11.52;2.55;;;21.00;68.70;;;;;;5027485;28;20377;-65
2021/04/07 02:47:00;;;;;;;6.13;2.05;;;21.00;68.80;;;;;;5025851;28;20030;-64
2021/04/07 02:49:27;;;;;;;9.25;2.58;;;21.00;68.80;;;;;;5024095;28;20028;-65
2021/04/07 02:51:54;;;;;;;8.35;2.65;;;21.00;68.80;;;;;;5028272;28;20014;-67
2021/04/07 02:54:22;;;;;;;12.57;3.10;;;21.00;68.80;;;;;;5025612;28;20465;-66
2021/04/07 02:56:49;;;;;;;7.82;3.05;;;21.00;69.00;;;;;;5021367;28;20086;-65
2021/04/07 02:59:15;;;;;;;11.00;3.20;;;21.00;69.10;;;;;;5026251;28;20921;-65
2021/04/07 03:01:42;;;;;;;11.05;2.67;;;21.00;69.10;;;;;;5025523;28;20094;-67
2021/04/07 03:04:09;;;;;;;8.75;2.90;;;21.00;69.00;;;;;;5018488;28;20100;-67
2021/04/07 03:06:35;;;;;;;11.55;3.30;;;21.00;69.10;;;;;;5019820;28;20028;-65
2021/04/07 03:09:03;;;;;;;9.20;3.25;;;20.90;69.10;;;;;;5019920;28;20032;-65
2021/04/07 03:11:29;;;;;;;9.73;2.60;;;20.90;69.10;;;;;;5019107;28;20103;-68
2021/04/07 03:13:56;;;;;;;9.98;2.72;;;20.90;69.10;;;;;;5025721;28;20010;-65
2021/04/07 03:16:23;;;;;;;9.80;3.30;;;21.00;69.20;;;;;;5021621;28;20109;-68
2021/04/07 03:18:49;;;;;;;7.38;3.30;;;20.90;69.20;;;;;;5028547;28;20030;-68
2021/04/07 03:21:15;;;;;;;8.00;2.55;;;20.90;69.20;;;;;;5016186;28;20029;-67
2021/04/07 03:23:42;;;;;;;4.65;2.20;;;20.90;69.30;;;;;;5022653;28;20040;-69
2021/04/07 03:26:08;;;;;;;8.82;2.88;;;20.90;69.30;;;;;;5021909;28;20049;-66
2021/04/07 03:28:35;;;;;;;10.25;2.40;;;20.90;69.50;;;;;;5022886;28;20040;-65
2021/04/07 03:31:01;;;;;;;8.85;2.40;;;20.90;69.50;;;;;;5019387;28;20036;-72
2021/04/07 03:33:32;;;;;;;10.88;3.10;;;20.90;69.50;;;;;;5025787;28;20045;-68
2021/04/07 03:35:59;;;;;;;10.80;2.90;;;20.90;69.60;;;;;;5022362;28;20415;-65
2021/04/07 03:38:26;;;;;;;9.40;2.70;;;20.90;69.60;;;;;;5021444;28;20029;-67
2021/04/07 03:40:53;;;;;;;12.15;3.08;;;20.90;69.60;;;;;;5025287;28;20104;-68
2021/04/07 03:43:21;;;;;;;10.57;2.20;;;20.90;69.60;;;;;;5021020;28;20026;-72
2021/04/07 03:45:51;;;;;;;6.95;1.75;;;20.90;69.70;;;;;;5026172;28;20013;-65
2021/04/07 03:48:21;;;;;;;6.18;2.10;;;20.90;69.70;;;;;;5025120;28;20138;-69
2021/04/07 03:50:48;;;;;;;8.10;2.03;;;20.90;69.70;;;;;;5022480;28;20029;-67
2021/04/07 03:53:16;;;;;;;7.88;2.10;;;20.80;69.80;;;;;;5022843;28;20032;-64
2021/04/07 03:55:44;;;;;;;10.88;2.50;;;20.80;69.80;;;;;;5025116;28;20033;-66
2021/04/07 03:58:11;;;;;;;16.30;2.58;;;20.80;69.90;;;;;;5027704;28;20040;-68
2021/04/07 04:00:38;;;;;;;13.77;2.78;;;20.80;70.00;;;;;;5032867;28;20028;-65
2021/04/07 04:03:05;;;;;;;7.93;2.58;;;20.80;70.00;;;;;;5025403;28;20101;-66
2021/04/07 04:05:31;;;;;;;6.15;2.10;;;20.80;70.00;;;;;;5026127;28;20069;-67
2021/04/07 04:07:58;;;;;;;6.55;2.35;;;20.80;70.00;;;;;;5028789;28;20681;-67
2021/04/07 04:10:24;;;;;;;10.10;4.30;;;20.80;70.00;;;;;;5027436;28;20535;-68
2021/04/07 04:12:50;;;;;;;15.10;7.25;;;20.80;70.00;;;;;;5030927;28;20025;-67
2021/04/07 04:15:17;;;;;;;18.40;5.25;;;20.80;70.10;;;;;;5025929;28;20496;-78
2021/04/07 04:17:44;;;;;;;11.25;4.10;;;20.70;70.10;;;;;;5031389;28;20496;-68
2021/04/07 04:20:13;;;;;;;9.70;4.05;;;20.80;70.10;;;;;;5030517;28;20010;-64
2021/04/07 04:22:40;;;;;;;9.32;3.55;;;20.70;70.10;;;;;;5028042;28;20029;-65
2021/04/07 04:25:10;;;;;;;10.77;4.55;;;20.70;70.10;;;;;;5024011;28;20102;-65
2021/04/07 04:27:37;;;;;;;15.57;10.85;;;20.70;70.10;;;;;;5027384;28;20124;-74
2021/04/07 04:30:06;;;;;;;13.93;9.48;;;20.70;70.20;;;;;;5029526;28;20028;-73
2021/04/07 04:32:32;;;;;;;10.70;6.38;;;20.70;70.20;;;;;;5028136;28;20501;-65
2021/04/07 04:34:59;;;;;;;11.13;5.03;;;20.70;70.20;;;;;;5028032;28;20048;-66
2021/04/07 04:37:25;;;;;;;8.32;3.47;;;20.70;70.20;;;;;;5027944;28;20040;-67
2021/04/07 04:39:52;;;;;;;9.77;3.55;;;20.70;70.20;;;;;;5032158;28;20068;-65
2021/04/07 04:42:19;;;;;;;7.13;2.60;;;20.70;70.20;;;;;;5027944;28;20108;-63
2021/04/07 04:44:45;;;;;;;8.05;2.80;;;20.70;70.20;;;;;;5025107;28;20071;-64
2021/04/07 04:47:12;;;;;;;9.52;3.72;;;20.70;70.20;;;;;;5023796;28;20063;-70
2021/04/07 04:49:38;;;;;;;5.03;2.38;;;20.70;70.20;;;;;;5028038;28;20503;-67
2021/04/07 04:52:05;;;;;;;7.95;3.10;;;20.70;70.20;;;;;;5026992;28;20449;-70
2021/04/07 04:54:31;;;;;;;9.43;2.75;;;20.60;70.30;;;;;;5028997;28;20105;-71
2021/04/07 04:56:58;;;;;;;7.45;1.80;;;20.70;70.50;;;;;;5029846;28;20472;-67
2021/04/07 04:59:24;;;;;;;8.95;2.58;;;20.60;70.40;;;;;;5025060;28;20017;-76
2021/04/07 05:01:51;;;;;;;11.98;3.20;;;20.60;70.50;;;;;;5023479;28;20076;-70
2021/04/07 05:04:18;;;;;;;5.20;2.35;;;20.60;70.50;;;;;;5028456;28;20025;-74
2021/04/07 05:06:44;;;;;;;5.05;2.28;;;20.60;70.40;;;;;;5020717;28;20087;-71
2021/04/07 05:09:11;;;;;;;7.82;2.55;;;20.60;70.50;;;;;;5020079;28;20481;-71
2021/04/07 05:11:37;;;;;;;7.82;2.75;;;20.60;70.50;;;;;;5019016;28;20029;-71
2021/04/07 05:14:04;;;;;;;7.45;2.33;;;20.60;70.50;;;;;;5017048;28;20092;-70
2021/04/07 05:16:32;;;;;;;8.15;3.33;;;20.60;70.60;;;;;;5018565;28;20041;-71
2021/04/07 05:19:00;;;;;;;8.85;2.10;;;20.60;70.60;;;;;;5018054;28;20056;-69
2021/04/07 05:21:26;;;;;;;4.80;2.17;;;20.60;70.70;;;;;;5018421;28;20025;-70
2021/04/07 05:23:53;;;;;;;10.40;3.00;;;20.50;70.70;;;;;;5017426;28;20507;-71
2021/04/07 05:26:20;;;;;;;4.88;2.60;;;20.50;70.80;;;;;;5021830;28;20018;-71
2021/04/07 05:28:47;;;;;;;4.43;1.95;;;20.50;70.80;;;;;;5013358;28;20033;-65
2021/04/07 05:31:15;;;;;;;7.07;2.90;;;20.50;70.80;;;;;;5019873;28;20073;-71
2021/04/07 05:33:43;;;;;;;13.10;4.63;;;20.50;70.90;;;;;;5016141;28;20060;-68
2021/04/07 05:36:13;;;;;;;6.32;2.33;;;20.60;70.90;;;;;;5017400;28;20034;-73
2021/04/07 05:38:39;;;;;;;8.23;2.45;;;20.50;71.00;;;;;;5023696;28;20092;-71
2021/04/07 05:41:06;;;;;;;6.95;2.13;;;20.50;71.00;;;;;;5012796;28;20029;-67
2021/04/07 05:43:35;;;;;;;4.07;2.13;;;20.50;71.10;;;;;;5023016;28;20120;-74
2021/04/07 05:46:03;;;;;;;3.38;2.00;;;20.50;71.10;;;;;;5024834;28;20123;-64
2021/04/07 05:48:29;;;;;;;6.82;1.95;;;20.50;71.10;;;;;;5021896;28;20038;-74
2021/04/07 05:50:57;;;;;;;11.27;2.67;;;20.50;71.20;;;;;;5027116;28;20026;-71
2021/04/07 05:53:24;;;;;;;8.90;2.88;;;20.50;71.30;;;;;;5025041;28;20098;-67
2021/04/07 05:55:56;;;;;;;11.77;2.92;;;20.50;71.40;;;;;;5017671;28;20049;-71
2021/04/07 05:58:23;;;;;;;6.43;2.13;;;20.50;71.40;;;;;;5018678;28;20045;-74
2021/04/07 06:00:50;;;;;;;5.55;2.00;;;20.50;71.40;;;;;;5024107;28;20120;-72
2021/04/07 06:03:17;;;;;;;5.40;1.83;;;20.50;71.60;;;;;;5028272;28;20474;-73
2021/04/07 06:05:47;;;;;;;4.35;1.80;;;20.50;71.60;;;;;;5025402;28;20053;-64
2021/04/07 06:08:15;;;;;;;9.43;2.25;;;20.50;71.70;;;;;;5016534;28;20018;-64
2021/04/07 06:10:44;;;;;;;4.35;1.40;;;20.50;71.80;;;;;;5026808;28;20030;-70
2021/04/07 06:13:12;;;;;;;6.20;2.08;;;20.50;71.90;;;;;;5028070;28;20109;-66
2021/04/07 06:15:39;;;;;;;6.43;2.20;;;20.50;71.90;;;;;;5021612;28;20060;-70
2021/04/07 06:18:08;;;;;;;5.07;1.45;;;20.50;71.90;;;;;;5026764;28;20048;-64
2021/04/07 06:20:36;;;;;;;2.47;1.27;;;20.50;72.00;;;;;;5026892;28;20040;-65
2021/04/07 06:23:04;;;;;;;5.22;1.90;;;20.50;72.10;;;;;;5024686;28;20510;-69
2021/04/07 06:25:31;;;;;;;6.90;1.80;;;20.50;72.20;;;;;;5020105;28;20116;-73
2021/04/07 06:28:00;;;;;;;5.97;2.13;;;20.50;72.20;;;;;;5025724;28;20022;-67
2021/04/07 06:30:41;;;;;;;5.00;1.52;;;20.50;72.20;;;;;;5022835;28;20385;-69
2021/04/07 06:33:16;;;;;;;3.28;1.50;;;20.50;72.30;;;;;;5023585;28;20129;-71
2021/04/07 06:35:46;;;;;;;5.72;1.75;;;20.50;72.40;;;;;;5024826;28;20021;-70
2021/04/07 06:38:13;;;;;;;7.95;1.88;;;20.60;72.50;;;;;;5023186;28;20049;-66
2021/04/07 06:40:40;;;;;;;4.60;1.70;;;20.60;72.60;;;;;;5022419;28;20160;-71
2021/04/07 06:43:07;;;;;;;3.15;1.30;;;20.50;72.60;;;;;;5022406;28;20403;-66
2021/04/07 06:45:34;;;;;;;4.60;1.63;;;20.60;72.60;;;;;;5024312;28;20096;-64
2021/04/07 06:48:01;;;;;;;6.18;2.22;;;20.60;72.70;;;;;;5024110;28;20025;-71
2021/04/07 06:50:28;;;;;;;4.68;1.73;;;20.60;72.70;;;;;;5026719;28;20633;-68
2021/04/07 06:52:59;;;;;;;4.78;1.60;;;20.60;72.70;;;;;;5025306;28;20021;-65
2021/04/07 06:55:27;;;;;;;6.93;1.75;;;20.70;72.80;;;;;;5017353;28;20033;-65
2021/04/07 06:57:56;;;;;;;6.28;1.67;;;20.70;72.80;;;;;;5026476;28;20038;-69
2021/04/07 07:00:26;;;;;;;6.45;1.30;;;20.70;72.80;;;;;;5027719;28;20443;-69
2021/04/07 07:03:07;;;;;;;8.30;2.05;;;20.70;72.70;;;;;;5023604;28;20014;-66
2021/04/07 07:05:40;;;;;;;3.92;1.52;;;20.70;72.60;;;;;;5026362;28;20033;-67
2021/04/07 07:08:09;;;;;;;6.28;1.65;;;20.80;72.60;;;;;;5027034;28;20361;-69
2021/04/07 07:10:48;;;;;;;4.85;1.55;;;20.80;72.60;;;;;;5024959;28;20021;-71
2021/04/07 07:13:23;;;;;;;7.10;1.77;;;20.80;72.50;;;;;;5021294;28;20094;-66
2021/04/07 07:15:49;;;;;;;;;;;20.90;72.60;;;;;;5021650;28;20127;-68
2021/04/07 07:18:27;;;;;;;4.60;1.92;;;20.90;72.50;;;;;;5026057;28;19924;-65
2021/04/07 07:20:54;;;;;;;9.73;2.08;;;20.90;72.40;;;;;;5022190;28;20080;-65
2021/04/07 07:23:27;;;;;;;6.88;1.85;;;20.90;72.20;;;;;;5017594;28;20022;-71
2021/04/07 07:26:03;;;;;;;4.10;1.45;;;21.00;72.20;;;;;;5024171;28;20396;-65
2021/04/07 07:28:41;;;;;;;4.50;1.45;;;21.00;72.80;;;;;;5030273;28;20372;-66
2021/04/07 07:31:24;;;;;;;3.80;1.85;;;21.00;72.00;;;;;;5029722;28;20556;-67
2021/04/07 07:33:52;;;;;;;6.00;1.52;;;21.00;71.90;;;;;;5027879;28;20069;-69
2021/04/07 07:36:18;;;;;;;3.92;1.90;;;21.10;71.90;;;;;;5023783;28;20087;-65
2021/04/07 07:38:54;;;;;;;4.40;1.75;;;21.10;71.80;;;;;;5023636;28;20045;-65
2021/04/07 07:41:31;;;;;;;6.35;2.05;;;21.10;71.70;;;;;;5028526;28;20021;-65
2021/04/07 07:43:59;;;;;;;6.05;1.73;;;21.10;71.60;;;;;;5027473;28;20036;-67
2021/04/07 07:46:27;;;;;;;4.75;1.80;;;21.20;71.50;;;;;;5025564;28;20041;-65
2021/04/07 07:48:54;;;;;;;7.30;2.28;;;21.20;71.40;;;;;;5026849;28;20059;-71
2021/04/07 07:51:26;;;;;;;4.63;1.63;;;21.30;71.30;;;;;;5031823;28;20041;-65
2021/04/07 07:53:54;;;;;;;6.00;1.60;;;21.30;71.30;;;;;;5025225;28;20033;-67
2021/04/07 07:56:23;;;;;;;5.75;1.95;;;21.30;71.10;;;;;;5026715;28;20577;-71
2021/04/07 07:58:51;;;;;;;4.65;2.13;;;21.40;71.10;;;;;;5020212;28;20026;-67
2021/04/07 08:01:19;;;;;;;5.50;1.67;;;21.40;71.00;;;;;;5024622;28;20045;-65
2021/04/07 08:03:47;;;;;;;5.72;1.58;;;21.40;70.90;;;;;;5022478;28;20385;-65
2021/04/07 08:06:15;;;;;;;7.53;2.38;;;21.50;70.80;;;;;;5030146;28;20021;-66
2021/04/07 08:08:42;;;;;;;8.77;2.67;;;21.50;70.60;;;;;;5016441;28;20493;-65
2021/04/07 08:11:09;;;;;;;4.80;2.17;;;21.50;70.50;;;;;;5028306;28;20022;-65
2021/04/07 08:13:43;;;;;;;6.68;2.10;;;21.60;70.50;;;;;;5024428;28;20029;-66
2021/04/07 08:16:15;;;;;;;5.38;2.35;;;21.60;70.40;;;;;;5025394;28;20095;-66
2021/04/07 08:18:44;;;;;;;4.55;2.00;;;21.60;70.20;;;;;;5029763;28;20112;-65
2021/04/07 08:21:17;;;;;;;6.18;2.05;;;21.70;70.10;;;;;;5029055;28;20104;-68
2021/04/07 08:23:46;;;;;;;7.07;2.28;;;21.70;69.90;;;;;;5025274;28;21619;-66
2021/04/07 08:26:15;;;;;;;7.32;2.88;;;21.70;69.70;;;;;;5019746;28;20022;-67
2021/04/07 08:28:42;;;;;;;7.75;2.13;;;21.70;69.50;;;;;;5022924;28;20022;-68
2021/04/07 08:31:15;;;;;;;7.88;1.60;;;21.80;69.40;;;;;;5021432;28;20109;-66
2021/04/07 08:33:47;;;;;;;9.57;2.53;;;21.80;69.30;;;;;;5026007;28;20134;-65
2021/04/07 08:36:24;;;;;;;5.85;2.42;;;21.90;69.30;;;;;;5029956;28;20088;-68
2021/04/07 08:39:11;;;;;;;8.27;1.58;;;22.00;69.20;;;;;;5021971;28;20118;-65
2021/04/07 08:41:39;;;;;;;6.20;1.85;;;22.00;69.00;;;;;;5029883;28;20501;-64
2021/04/07 08:44:06;;;;;;;6.93;1.80;;;22.00;68.80;;;;;;5024358;28;20366;-67
2021/04/07 08:46:50;;;;;;;8.35;1.85;;;22.10;68.70;;;;;;5021895;28;20025;-65
2021/04/07 08:49:39;;;;;;;4.32;2.28;;;22.10;68.50;;;;;;5021798;28;20032;-65
2021/04/07 08:52:16;;;;;;;6.25;2.47;;;22.20;68.20;;;;;;5026312;28;20037;-65
2021/04/07 08:54:48;;;;;;;5.68;1.58;;;22.20;68.70;;;;;;5037342;28;20037;-66
2021/04/07 08:57:25;;;;;;;5.90;1.52;;;22.30;67.90;;;;;;5030067;28;20064;-68
2021/04/07 08:59:56;;;;;;;5.18;1.75;;;22.40;67.50;;;;;;5022901;28;20072;-67
2021/04/07 09:02:23;;;;;;;4.65;1.45;;;22.40;67.10;;;;;;5026462;28;20539;-65
2021/04/07 09:05:07;;;;;;;6.35;2.15;;;22.50;66.80;;;;;;5028353;28;20546;-67
2021/04/07 09:07:44;;;;;;;3.22;1.40;;;22.60;66.70;;;;;;5021807;28;20393;-66
2021/04/07 09:10:20;;;;;;;3.95;1.77;;;22.70;66.40;;;;;;5028024;28;20496;-65
2021/04/07 09:12:47;;;;;;;;;;;22.70;65.90;;;;;;5015796;28;20054;-65
2021/04/07 09:15:27;;;;;;;2.47;1.30;;;22.70;65.60;;;;;;5024284;28;19999;-70
2021/04/07 09:17:56;;;;;;;3.88;1.42;;;22.80;65.50;;;;;;5022211;28;20124;-65
2021/04/07 09:20:47;;;;;;;11.63;2.25;;;22.90;65.30;;;;;;5025656;28;20018;-67
2021/04/07 09:23:19;;;;;;;7.38;1.65;;;23.00;64.80;;;;;;5022591;28;20091;-65
2021/04/07 09:25:59;;;;;;;3.88;1.60;;;23.00;64.20;;;;;;5026695;28;20026;-65
2021/04/07 09:28:39;;;;;;;5.32;2.10;;;23.00;64.20;;;;;;5027509;28;20026;-68
2021/04/07 09:31:18;;;;;;;10.07;2.15;;;23.10;63.90;;;;;;5013773;28;20409;-66
2021/04/07 09:33:49;;;;;;;7.88;1.52;;;23.20;63.70;;;;;;5025050;28;20115;-66
2021/04/07 09:36:18;;;;;;;8.32;3.03;;;23.20;63.40;;;;;;5023353;28;20025;-67
2021/04/07 09:38:52;;;;;;;5.20;1.85;;;23.30;63.30;;;;;;5024288;28;20111;-69
2021/04/07 09:41:25;;;;;;;8.05;2.15;;;23.30;63.10;;;;;;5025802;28;20421;-65
2021/04/07 09:43:53;;;;;;;4.32;1.50;;;23.30;63.00;;;;;;5021596;28;20041;-70
2021/04/07 09:46:21;;;;;;;7.97;1.80;;;23.40;62.90;;;;;;5023213;28;20025;-68
2021/04/07 09:48:53;;;;;;;8.90;1.95;;;23.50;62.70;;;;;;5027365;28;20469;-71
2021/04/07 09:51:25;;;;;;;5.75;2.38;;;23.50;62.20;;;;;;5024211;28;20485;-66
2021/04/07 09:53:54;;;;;;;6.63;1.60;;;23.60;61.70;;;;;;5027215;28;20033;-70
2021/04/07 09:56:20;;;;;;;5.72;1.40;;;23.60;61.30;;;;;;5023842;28;20408;-70
2021/04/07 09:58:50;;;;;;;3.40;1.00;;;23.70;60.90;;;;;;5021391;28;20033;-70
2021/04/07 10:01:18;;;;;;;4.82;1.25;;;23.80;60.70;;;;;;5021939;28;20120;-67
2021/04/07 10:03:52;;;;;;;3.72;1.60;;;23.80;60.50;;;;;;5024802;28;20489;-71
2021/04/07 10:06:26;;;;;;;6.97;1.63;;;23.90;60.50;;;;;;5025795;28;20025;-67
2021/04/07 10:09:07;;;;;;;9.63;1.80;;;24.00;60.70;;;;;;5025438;28;20082;-72
2021/04/07 10:11:39;;;;;;;5.57;2.22;;;24.00;60.20;;;;;;5026576;28;20021;-76
2021/04/07 10:14:08;;;;;;;11.02;1.65;;;24.10;60.20;;;;;;5022362;28;20048;-68
2021/04/07 10:16:36;;;;;;;11.48;2.53;;;24.10;60.00;;;;;;5028350;28;20041;-69
2021/04/07 10:19:06;;;;;;;10.70;2.03;;;24.20;60.00;;;;;;5025019;28;20104;-65
2021/04/07 10:21:34;;;;;;;6.70;1.80;;;24.30;59.80;;;;;;5027171;28;20017;-67
2021/04/07 10:24:01;;;;;;;4.10;1.65;;;24.30;59.50;;;;;;5022898;28;20376;-67
2021/04/07 10:26:28;;;;;;;4.03;1.80;;;24.40;59.20;;;;;;5015579;28;20052;-65
2021/04/07 10:29:02;;;;;;;6.85;3.13;;;24.40;59.00;;;;;;5025931;28;20030;-65
2021/04/07 10:31:30;;;;;;;9.98;2.45;;;24.50;58.70;;;;;;5018940;28;20494;-65
2021/04/07 10:34:07;;;;;;;10.48;2.70;;;24.50;58.70;;;;;;5024203;28;20018;-67
2021/04/07 10:36:38;;;;;;;7.00;2.83;;;24.60;58.90;;;;;;5025738;28;20036;-65
2021/04/07 10:39:17;;;;;;;7.72;2.60;;;24.60;58.90;;;;;;5025758;28;20045;-69
2021/04/07 10:41:51;;;;;;;10.25;2.42;;;24.70;58.60;;;;;;5023834;28;20039;-69
2021/04/07 10:44:32;;;;;;;8.93;3.25;;;24.70;58.60;;;;;;5023569;28;20030;-66
2021/04/07 10:46:59;;;;;;;9.10;2.22;;;24.70;58.60;;;;;;5026822;28;20025;-71
2021/04/07 10:49:26;;;;;;;10.57;2.83;;;24.80;58.80;;;;;;5021279;28;20030;-68
2021/04/07 10:52:04;;;;;;;5.68;1.80;;;24.90;58.50;;;;;;5026941;28;20025;-65
2021/04/07 10:54:32;;;;;;;2.85;1.40;;;25.00;58.00;;;;;;5022206;28;20505;-67
2021/04/07 10:57:11;;;;;;;8.45;1.92;;;25.00;57.50;;;;;;5025700;28;20037;-65
2021/04/07 10:59:38;;;;;;;9.05;2.10;;;25.10;57.20;;;;;;5025363;28;20497;-65
2021/04/07 11:02:17;;;;;;;4.53;1.50;;;25.20;57.20;;;;;;5021116;28;20367;-65
2021/04/07 11:04:43;;;;;;;4.50;1.27;;;25.20;56.60;;;;;;5018932;28;20010;-72
2021/04/07 11:07:16;;;;;;;7.75;1.58;;;25.30;56.00;;;;;;5022345;28;20033;-72
2021/04/07 11:09:51;;;;;;;2.78;1.67;;;25.30;55.80;;;;;;5022667;28;20063;-65
2021/04/07 11:12:21;;;;;;;3.05;1.30;;;25.40;55.70;;;;;;5019101;28;20030;-66
2021/04/07 11:14:52;;;;;;;6.07;1.48;;;25.40;55.80;;;;;;5022063;28;20026;-72
2021/04/07 11:17:19;;;;;;;2.85;1.10;;;25.40;55.70;;;;;;5021731;28;20407;-68
2021/04/07 11:19:46;;;;;;;4.97;1.52;;;25.40;55.80;;;;;;5024627;28;20033;-65
2021/04/07 11:22:13;;;;;;;5.15;1.27;;;25.50;55.40;;;;;;5026385;28;20101;-68
2021/04/07 11:24:40;;;;;;;1.83;1.05;;;25.50;55.60;;;;;;5022599;28;20034;-66
2021/04/07 11:27:09;;;;;;;3.53;1.17;;;25.60;55.50;;;;;;5024094;28;20026;-66
2021/04/07 11:29:36;;;;;;;2.95;1.23;;;25.60;55.30;;;;;;5026713;28;20424;-67
2021/04/07 11:32:06;;;;;;;3.78;1.45;;;25.70;55.20;;;;;;5022745;28;20138;-71
2021/04/07 11:34:57;;;;;;;4.07;1.20;;;25.70;55.30;;;;;;5020199;28;20164;-73
2021/04/07 11:37:42;;;;;;;4.32;1.20;;;25.80;55.40;;;;;;5021146;28;20041;-72
2021/04/07 11:40:11;;;;;;;6.28;1.67;;;25.80;55.40;;;;;;5025414;28;20018;-69
2021/04/07 11:45:23;;;;;;;2.90;1.70;;;25.80;55.90;;;;;;5024210;28;20164;-65
2021/04/07 11:47:49;;;;;;;3.92;1.80;;;25.90;55.30;;;;;;5025162;28;20075;-69
2021/04/07 11:50:15;;;;;;;3.08;1.48;;;25.90;55.30;;;;;;5023122;28;20022;-65
2021/04/07 11:52:42;;;;;;;3.88;1.38;;;26.00;55.40;;;;;;5017300;28;20029;-68
2021/04/07 11:55:09;;;;;;;7.07;1.63;;;26.00;55.50;;;;;;5020413;28;20014;-66
2021/04/07 11:57:35;;;;;;;6.30;1.80;;;26.10;55.50;;;;;;5024141;28;20555;-66
2021/04/07 12:00:02;;;;;;;3.05;1.30;;;26.10;55.30;;;;;;5026268;28;20512;-68
2021/04/07 12:02:28;;;;;;;2.35;1.15;;;26.10;55.30;;;;;;5013566;28;20128;-71
2021/04/07 12:04:55;;;;;;;5.50;1.60;;;26.10;55.30;;;;;;5027050;28;20014;-66
2021/04/07 12:07:21;;;;;;;6.20;1.30;;;26.20;55.40;;;;;;5025312;28;20014;-71
2021/04/07 12:09:48;;;;;;;5.90;1.58;;;26.10;55.40;;;;;;5023029;28;20397;-68
2021/04/07 12:12:15;;;;;;;4.88;1.70;;;26.10;55.50;;;;;;5026664;28;20061;-73
2021/04/07 12:14:42;;;;;;;6.65;1.48;;;26.20;55.70;;;;;;5026933;28;20041;-66
2021/04/07 12:17:08;;;;;;;19.90;3.85;;;26.20;55.80;;;;;;5028765;28;20187;-67
2021/04/07 12:19:35;;;;;;;4.28;1.30;;;26.20;55.70;;;;;;5025753;28;20021;-70
2021/04/07 12:22:02;;;;;;;5.05;1.67;;;26.20;55.80;;;;;;5025548;28;20028;-72
2021/04/07 12:24:29;;;;;;;3.92;1.38;;;26.30;55.80;;;;;;5026428;28;20029;-70
2021/04/07 12:26:56;;;;;;;3.95;1.25;;;26.30;55.80;;;;;;5022724;28;20044;-67
2021/04/07 12:29:24;;;;;;;7.05;1.83;;;26.30;55.70;;;;;;5023298;28;20018;-72
2021/04/07 12:31:50;;;;;;;3.97;1.48;;;26.30;55.80;;;;;;5022925;28;20036;-67
2021/04/07 12:34:17;;;;;;;7.05;2.15;;;26.30;55.80;;;;;;5028231;28;20472;-73
2021/04/07 12:36:43;;;;;;;4.82;1.88;;;26.30;55.80;;;;;;5027501;28;20033;-71
2021/04/07 12:39:11;;;;;;;2.92;1.45;;;26.30;55.90;;;;;;5025402;28;20022;-69
2021/04/07 12:44:04;;;;;;;2.45;1.50;;;26.20;55.90;;;;;;5022819;28;20021;-65
2021/04/07 12:46:31;;;;;;;6.35;2.13;;;26.20;55.90;;;;;;5025773;28;20469;-69
2021/04/07 12:48:57;;;;;;;7.10;2.20;;;26.20;56.00;;;;;;5025387;28;20026;-67
2021/04/07 12:51:24;;;;;;;8.80;2.03;;;26.20;56.00;;;;;;5026488;28;20026;-69
2021/04/07 12:53:51;;;;;;;6.20;1.67;;;26.20;56.00;;;;;;5039539;28;20399;-70
2021/04/07 12:56:19;;;;;;;6.20;1.80;;;26.20;56.00;;;;;;5022925;28;20088;-70
2021/04/07 12:58:47;;;;;;;3.90;1.30;;;26.20;56.10;;;;;;5027890;28;20029;-70
2021/04/07 13:01:13;;;;;;;7.20;2.28;;;26.20;56.20;;;;;;5019038;28;20030;-66